<?xml version="1.0" encoding="UTF-8" standalone="no" ?>
<gpx xmlns="http://www.topografix.com/GPX/1/1" xmlns:xsi="http://www.w3.org/2001/XMLSchema-instance" xsi:schemaLocation="http://www.topografix.com/GPX/1/1 http://www.topografix.com/GPX/1/1/gpx.xsd" version="1.1" creator="VisuGPX - https://www.visugpx.com">
  <metadata>
    <name>24 - Saint Martin de Fressengeas nord</name>
    <desc><![CDATA[Cet itinéraire fait partie de la collection de EquiLiberté : www.equiliberte.org
Circuit  NON ACCESSIBLE aux attelages]]></desc>
  </metadata>
  <trk>
    <name><![CDATA[24 - Saint Martin de Fressengeas nord]]></name>
    <trkseg>
      <trkpt lat="45.44291" lon="0.84443">
        <ele>263</ele>
        <time>2016-03-07T20:14:27Z</time>
      </trkpt>
      <trkpt lat="45.44291" lon="0.84443">
        <ele>263</ele>
        <time>2016-03-07T20:14:27Z</time>
      </trkpt>
      <trkpt lat="45.44345" lon="0.84395">
        <ele>263</ele>
        <time>2016-03-07T20:16:27Z</time>
      </trkpt>
      <trkpt lat="45.44321" lon="0.84323">
        <ele>257</ele>
        <time>2016-03-07T20:18:27Z</time>
      </trkpt>
      <trkpt lat="45.44279" lon="0.84207">
        <ele>248</ele>
        <time>2016-03-07T20:20:27Z</time>
      </trkpt>
      <trkpt lat="45.44246" lon="0.84108">
        <ele>244</ele>
        <time>2016-03-07T20:22:27Z</time>
      </trkpt>
      <trkpt lat="45.443" lon="0.83996">
        <ele>233</ele>
        <time>2016-03-07T20:24:27Z</time>
      </trkpt>
      <trkpt lat="45.44339" lon="0.83923">
        <ele>228</ele>
        <time>2016-03-07T20:26:27Z</time>
      </trkpt>
      <trkpt lat="45.44378" lon="0.83846">
        <ele>217</ele>
        <time>2016-03-07T20:28:27Z</time>
      </trkpt>
      <trkpt lat="45.44381" lon="0.83747">
        <ele>206</ele>
        <time>2016-03-07T20:30:27Z</time>
      </trkpt>
      <trkpt lat="45.44396" lon="0.83653">
        <ele>203</ele>
        <time>2016-03-07T20:32:27Z</time>
      </trkpt>
      <trkpt lat="45.44487" lon="0.8331">
        <ele>227</ele>
        <time>2016-03-07T20:34:27Z</time>
      </trkpt>
      <trkpt lat="45.44541" lon="0.83117">
        <ele>227</ele>
        <time>2016-03-07T20:36:27Z</time>
      </trkpt>
      <trkpt lat="45.44586" lon="0.83014">
        <ele>231</ele>
        <time>2016-03-07T20:38:27Z</time>
      </trkpt>
      <trkpt lat="45.44742" lon="0.83134">
        <ele>240</ele>
        <time>2016-03-07T20:40:27Z</time>
      </trkpt>
      <trkpt lat="45.44782" lon="0.83057">
        <ele>241</ele>
        <time>2016-03-07T20:42:27Z</time>
      </trkpt>
      <trkpt lat="45.44824" lon="0.82971">
        <ele>239</ele>
        <time>2016-03-07T20:44:27Z</time>
      </trkpt>
      <trkpt lat="45.44833" lon="0.82906">
        <ele>234</ele>
        <time>2016-03-07T20:46:27Z</time>
      </trkpt>
      <trkpt lat="45.44881" lon="0.82803">
        <ele>232</ele>
        <time>2016-03-07T20:48:27Z</time>
      </trkpt>
      <trkpt lat="45.44983" lon="0.82662">
        <ele>234</ele>
        <time>2016-03-07T20:50:27Z</time>
      </trkpt>
      <trkpt lat="45.45037" lon="0.82623">
        <ele>234</ele>
        <time>2016-03-07T20:52:27Z</time>
      </trkpt>
      <trkpt lat="45.45098" lon="0.82623">
        <ele>233</ele>
        <time>2016-03-07T20:54:27Z</time>
      </trkpt>
      <trkpt lat="45.45212" lon="0.8273">
        <ele>232</ele>
        <time>2016-03-07T20:56:27Z</time>
      </trkpt>
      <trkpt lat="45.45251" lon="0.82855">
        <ele>234</ele>
        <time>2016-03-07T20:58:27Z</time>
      </trkpt>
      <trkpt lat="45.4529" lon="0.82906">
        <ele>239</ele>
        <time>2016-03-07T21:00:27Z</time>
      </trkpt>
      <trkpt lat="45.45345" lon="0.82954">
        <ele>241</ele>
        <time>2016-03-07T21:02:27Z</time>
      </trkpt>
      <trkpt lat="45.45387" lon="0.82979">
        <ele>245</ele>
        <time>2016-03-07T21:04:27Z</time>
      </trkpt>
      <trkpt lat="45.45423" lon="0.82958">
        <ele>249</ele>
        <time>2016-03-07T21:06:27Z</time>
      </trkpt>
      <trkpt lat="45.45477" lon="0.82915">
        <ele>250</ele>
        <time>2016-03-07T21:08:27Z</time>
      </trkpt>
      <trkpt lat="45.45465" lon="0.82868">
        <ele>249</ele>
        <time>2016-03-07T21:10:27Z</time>
      </trkpt>
      <trkpt lat="45.45519" lon="0.82838">
        <ele>249</ele>
        <time>2016-03-07T21:12:27Z</time>
      </trkpt>
      <trkpt lat="45.45576" lon="0.82859">
        <ele>248</ele>
        <time>2016-03-07T21:14:27Z</time>
      </trkpt>
      <trkpt lat="45.45637" lon="0.82902">
        <ele>250</ele>
        <time>2016-03-07T21:16:27Z</time>
      </trkpt>
      <trkpt lat="45.457" lon="0.82979">
        <ele>253</ele>
        <time>2016-03-07T21:18:27Z</time>
      </trkpt>
      <trkpt lat="45.45754" lon="0.83044">
        <ele>253</ele>
        <time>2016-03-07T21:20:27Z</time>
      </trkpt>
      <trkpt lat="45.45802" lon="0.83082">
        <ele>255</ele>
        <time>2016-03-07T21:22:27Z</time>
      </trkpt>
      <trkpt lat="45.45874" lon="0.83142">
        <ele>259</ele>
        <time>2016-03-07T21:24:27Z</time>
      </trkpt>
      <trkpt lat="45.45953" lon="0.83172">
        <ele>266</ele>
        <time>2016-03-07T21:26:27Z</time>
      </trkpt>
      <trkpt lat="45.46013" lon="0.83147">
        <ele>270</ele>
        <time>2016-03-07T21:28:27Z</time>
      </trkpt>
      <trkpt lat="45.46088" lon="0.83207">
        <ele>276</ele>
        <time>2016-03-07T21:30:27Z</time>
      </trkpt>
      <trkpt lat="45.46275" lon="0.83331">
        <ele>278</ele>
        <time>2016-03-07T21:32:27Z</time>
      </trkpt>
      <trkpt lat="45.46401" lon="0.83284">
        <ele>270</ele>
        <time>2016-03-07T21:34:27Z</time>
      </trkpt>
      <trkpt lat="45.46497" lon="0.83267">
        <ele>270</ele>
        <time>2016-03-07T21:36:27Z</time>
      </trkpt>
      <trkpt lat="45.46503" lon="0.82979">
        <ele>263</ele>
        <time>2016-03-07T21:38:27Z</time>
      </trkpt>
      <trkpt lat="45.465" lon="0.827">
        <ele>257</ele>
        <time>2016-03-07T21:40:27Z</time>
      </trkpt>
      <trkpt lat="45.46506" lon="0.82537">
        <ele>260</ele>
        <time>2016-03-07T21:42:27Z</time>
      </trkpt>
      <trkpt lat="45.46573" lon="0.8231">
        <ele>258</ele>
        <time>2016-03-07T21:44:27Z</time>
      </trkpt>
      <trkpt lat="45.46534" lon="0.82254">
        <ele>256</ele>
        <time>2016-03-07T21:46:27Z</time>
      </trkpt>
      <trkpt lat="45.46488" lon="0.82237">
        <ele>255</ele>
        <time>2016-03-07T21:48:27Z</time>
      </trkpt>
      <trkpt lat="45.46488" lon="0.821">
        <ele>264</ele>
        <time>2016-03-07T21:50:27Z</time>
      </trkpt>
      <trkpt lat="45.46416" lon="0.81992">
        <ele>265</ele>
        <time>2016-03-07T21:52:27Z</time>
      </trkpt>
      <trkpt lat="45.46356" lon="0.81902">
        <ele>263</ele>
        <time>2016-03-07T21:54:27Z</time>
      </trkpt>
      <trkpt lat="45.46329" lon="0.81799">
        <ele>262</ele>
        <time>2016-03-07T21:56:27Z</time>
      </trkpt>
      <trkpt lat="45.46332" lon="0.81627">
        <ele>259</ele>
        <time>2016-03-07T21:58:27Z</time>
      </trkpt>
      <trkpt lat="45.46275" lon="0.81348">
        <ele>250</ele>
        <time>2016-03-07T22:00:27Z</time>
      </trkpt>
      <trkpt lat="45.46338" lon="0.814">
        <ele>252</ele>
        <time>2016-03-07T22:02:27Z</time>
      </trkpt>
      <trkpt lat="45.46371" lon="0.8146">
        <ele>256</ele>
        <time>2016-03-07T22:04:27Z</time>
      </trkpt>
      <trkpt lat="45.46386" lon="0.81563">
        <ele>259</ele>
        <time>2016-03-07T22:06:27Z</time>
      </trkpt>
      <trkpt lat="45.46407" lon="0.81666">
        <ele>263</ele>
        <time>2016-03-07T22:08:27Z</time>
      </trkpt>
      <trkpt lat="45.46455" lon="0.81769">
        <ele>266</ele>
        <time>2016-03-07T22:10:27Z</time>
      </trkpt>
      <trkpt lat="45.46543" lon="0.81868">
        <ele>268</ele>
        <time>2016-03-07T22:12:27Z</time>
      </trkpt>
      <trkpt lat="45.46624" lon="0.81954">
        <ele>269</ele>
        <time>2016-03-07T22:14:27Z</time>
      </trkpt>
      <trkpt lat="45.46708" lon="0.82027">
        <ele>273</ele>
        <time>2016-03-07T22:16:27Z</time>
      </trkpt>
      <trkpt lat="45.46807" lon="0.82108">
        <ele>280</ele>
        <time>2016-03-07T22:18:27Z</time>
      </trkpt>
      <trkpt lat="45.46901" lon="0.82215">
        <ele>283</ele>
        <time>2016-03-07T22:20:27Z</time>
      </trkpt>
      <trkpt lat="45.46928" lon="0.82275">
        <ele>281</ele>
        <time>2016-03-07T22:22:27Z</time>
      </trkpt>
      <trkpt lat="45.46964" lon="0.82366">
        <ele>282</ele>
        <time>2016-03-07T22:24:27Z</time>
      </trkpt>
      <trkpt lat="45.46985" lon="0.8246">
        <ele>283</ele>
        <time>2016-03-07T22:26:27Z</time>
      </trkpt>
      <trkpt lat="45.47039" lon="0.82537">
        <ele>283</ele>
        <time>2016-03-07T22:28:27Z</time>
      </trkpt>
      <trkpt lat="45.47123" lon="0.82559">
        <ele>282</ele>
        <time>2016-03-07T22:30:27Z</time>
      </trkpt>
      <trkpt lat="45.47139" lon="0.82653">
        <ele>284</ele>
        <time>2016-03-07T22:32:27Z</time>
      </trkpt>
      <trkpt lat="45.47154" lon="0.8276">
        <ele>291</ele>
        <time>2016-03-07T22:34:27Z</time>
      </trkpt>
      <trkpt lat="45.47196" lon="0.82833">
        <ele>292</ele>
        <time>2016-03-07T22:36:27Z</time>
      </trkpt>
      <trkpt lat="45.47211" lon="0.82984">
        <ele>293</ele>
        <time>2016-03-07T22:38:27Z</time>
      </trkpt>
      <trkpt lat="45.47256" lon="0.83138">
        <ele>300</ele>
        <time>2016-03-07T22:40:27Z</time>
      </trkpt>
      <trkpt lat="45.47274" lon="0.83245">
        <ele>302</ele>
        <time>2016-03-07T22:42:27Z</time>
      </trkpt>
      <trkpt lat="45.47349" lon="0.83095">
        <ele>302</ele>
        <time>2016-03-07T22:44:27Z</time>
      </trkpt>
      <trkpt lat="45.4747" lon="0.82949">
        <ele>300</ele>
        <time>2016-03-07T22:46:27Z</time>
      </trkpt>
      <trkpt lat="45.4762" lon="0.82812">
        <ele>299</ele>
        <time>2016-03-07T22:48:27Z</time>
      </trkpt>
      <trkpt lat="45.47662" lon="0.82743">
        <ele>301</ele>
        <time>2016-03-07T22:50:27Z</time>
      </trkpt>
      <trkpt lat="45.47719" lon="0.82739">
        <ele>300</ele>
        <time>2016-03-07T22:52:27Z</time>
      </trkpt>
      <trkpt lat="45.47918" lon="0.82752">
        <ele>299</ele>
        <time>2016-03-07T22:54:27Z</time>
      </trkpt>
      <trkpt lat="45.47969" lon="0.82765">
        <ele>299</ele>
        <time>2016-03-07T22:56:27Z</time>
      </trkpt>
      <trkpt lat="45.4802" lon="0.82842">
        <ele>298</ele>
        <time>2016-03-07T22:58:27Z</time>
      </trkpt>
      <trkpt lat="45.48098" lon="0.82893">
        <ele>294</ele>
        <time>2016-03-07T23:00:27Z</time>
      </trkpt>
      <trkpt lat="45.48171" lon="0.83001">
        <ele>297</ele>
        <time>2016-03-07T23:02:27Z</time>
      </trkpt>
      <trkpt lat="45.48261" lon="0.83087">
        <ele>296</ele>
        <time>2016-03-07T23:04:27Z</time>
      </trkpt>
      <trkpt lat="45.48321" lon="0.83142">
        <ele>292</ele>
        <time>2016-03-07T23:06:27Z</time>
      </trkpt>
      <trkpt lat="45.48366" lon="0.83211">
        <ele>289</ele>
        <time>2016-03-07T23:08:27Z</time>
      </trkpt>
      <trkpt lat="45.48417" lon="0.8331">
        <ele>287</ele>
        <time>2016-03-07T23:10:27Z</time>
      </trkpt>
      <trkpt lat="45.48529" lon="0.8343">
        <ele>284</ele>
        <time>2016-03-07T23:12:27Z</time>
      </trkpt>
      <trkpt lat="45.48568" lon="0.83499">
        <ele>283</ele>
        <time>2016-03-07T23:14:27Z</time>
      </trkpt>
      <trkpt lat="45.48625" lon="0.83516">
        <ele>284</ele>
        <time>2016-03-07T23:16:27Z</time>
      </trkpt>
      <trkpt lat="45.4876" lon="0.83559">
        <ele>284</ele>
        <time>2016-03-07T23:18:27Z</time>
      </trkpt>
      <trkpt lat="45.48824" lon="0.83863">
        <ele>279</ele>
        <time>2016-03-07T23:20:27Z</time>
      </trkpt>
      <trkpt lat="45.48827" lon="0.83936">
        <ele>280</ele>
        <time>2016-03-07T23:22:27Z</time>
      </trkpt>
      <trkpt lat="45.48809" lon="0.84104">
        <ele>277</ele>
        <time>2016-03-07T23:24:27Z</time>
      </trkpt>
      <trkpt lat="45.48763" lon="0.84181">
        <ele>276</ele>
        <time>2016-03-07T23:26:27Z</time>
      </trkpt>
      <trkpt lat="45.48715" lon="0.84327">
        <ele>271</ele>
        <time>2016-03-07T23:28:27Z</time>
      </trkpt>
      <trkpt lat="45.48718" lon="0.84443">
        <ele>266</ele>
        <time>2016-03-07T23:30:27Z</time>
      </trkpt>
      <trkpt lat="45.48721" lon="0.84559">
        <ele>264</ele>
        <time>2016-03-07T23:32:27Z</time>
      </trkpt>
      <trkpt lat="45.48742" lon="0.84674">
        <ele>262</ele>
        <time>2016-03-07T23:34:27Z</time>
      </trkpt>
      <trkpt lat="45.48778" lon="0.84807">
        <ele>261</ele>
        <time>2016-03-07T23:36:27Z</time>
      </trkpt>
      <trkpt lat="45.48766" lon="0.8488">
        <ele>261</ele>
        <time>2016-03-07T23:38:27Z</time>
      </trkpt>
      <trkpt lat="45.48724" lon="0.84898">
        <ele>263</ele>
        <time>2016-03-07T23:40:27Z</time>
      </trkpt>
      <trkpt lat="45.48703" lon="0.85052">
        <ele>265</ele>
        <time>2016-03-07T23:42:27Z</time>
      </trkpt>
      <trkpt lat="45.48655" lon="0.85031">
        <ele>267</ele>
        <time>2016-03-07T23:44:27Z</time>
      </trkpt>
      <trkpt lat="45.48613" lon="0.85121">
        <ele>263</ele>
        <time>2016-03-07T23:46:27Z</time>
      </trkpt>
      <trkpt lat="45.48592" lon="0.85219">
        <ele>260</ele>
        <time>2016-03-07T23:48:27Z</time>
      </trkpt>
      <trkpt lat="45.4858" lon="0.85335">
        <ele>251</ele>
        <time>2016-03-07T23:50:27Z</time>
      </trkpt>
      <trkpt lat="45.48517" lon="0.85391">
        <ele>249</ele>
        <time>2016-03-07T23:52:27Z</time>
      </trkpt>
      <trkpt lat="45.48478" lon="0.85417">
        <ele>249</ele>
        <time>2016-03-07T23:54:27Z</time>
      </trkpt>
      <trkpt lat="45.48454" lon="0.8537">
        <ele>254</ele>
        <time>2016-03-07T23:56:27Z</time>
      </trkpt>
      <trkpt lat="45.48405" lon="0.8531">
        <ele>257</ele>
        <time>2016-03-07T23:58:27Z</time>
      </trkpt>
      <trkpt lat="45.4839" lon="0.85262">
        <ele>258</ele>
        <time>2016-03-08T00:00:27Z</time>
      </trkpt>
      <trkpt lat="45.48342" lon="0.85228">
        <ele>259</ele>
        <time>2016-03-08T00:02:27Z</time>
      </trkpt>
      <trkpt lat="45.48318" lon="0.85172">
        <ele>262</ele>
        <time>2016-03-08T00:04:27Z</time>
      </trkpt>
      <trkpt lat="45.48246" lon="0.85159">
        <ele>268</ele>
        <time>2016-03-08T00:06:27Z</time>
      </trkpt>
      <trkpt lat="45.48207" lon="0.85104">
        <ele>268</ele>
        <time>2016-03-08T00:08:27Z</time>
      </trkpt>
      <trkpt lat="45.48144" lon="0.85039">
        <ele>268</ele>
        <time>2016-03-08T00:10:27Z</time>
      </trkpt>
      <trkpt lat="45.48074" lon="0.85013">
        <ele>270</ele>
        <time>2016-03-08T00:12:27Z</time>
      </trkpt>
      <trkpt lat="45.48002" lon="0.84992">
        <ele>273</ele>
        <time>2016-03-08T00:14:27Z</time>
      </trkpt>
      <trkpt lat="45.47936" lon="0.84983">
        <ele>272</ele>
        <time>2016-03-08T00:16:27Z</time>
      </trkpt>
      <trkpt lat="45.47894" lon="0.84945">
        <ele>272</ele>
        <time>2016-03-08T00:18:27Z</time>
      </trkpt>
      <trkpt lat="45.47843" lon="0.84859">
        <ele>275</ele>
        <time>2016-03-08T00:20:27Z</time>
      </trkpt>
      <trkpt lat="45.47783" lon="0.84735">
        <ele>275</ele>
        <time>2016-03-08T00:22:27Z</time>
      </trkpt>
      <trkpt lat="45.47731" lon="0.84807">
        <ele>276</ele>
        <time>2016-03-08T00:24:27Z</time>
      </trkpt>
      <trkpt lat="45.4762" lon="0.8488">
        <ele>276</ele>
        <time>2016-03-08T00:26:27Z</time>
      </trkpt>
      <trkpt lat="45.47385" lon="0.85108">
        <ele>270</ele>
        <time>2016-03-08T00:28:27Z</time>
      </trkpt>
      <trkpt lat="45.47226" lon="0.85254">
        <ele>269</ele>
        <time>2016-03-08T00:30:27Z</time>
      </trkpt>
      <trkpt lat="45.47196" lon="0.85185">
        <ele>268</ele>
        <time>2016-03-08T00:32:27Z</time>
      </trkpt>
      <trkpt lat="45.47136" lon="0.85284">
        <ele>268</ele>
        <time>2016-03-08T00:34:27Z</time>
      </trkpt>
      <trkpt lat="45.4712" lon="0.85357">
        <ele>269</ele>
        <time>2016-03-08T00:36:27Z</time>
      </trkpt>
      <trkpt lat="45.47105" lon="0.8543">
        <ele>269</ele>
        <time>2016-03-08T00:38:27Z</time>
      </trkpt>
      <trkpt lat="45.47087" lon="0.8549">
        <ele>268</ele>
        <time>2016-03-08T00:40:27Z</time>
      </trkpt>
      <trkpt lat="45.47066" lon="0.85546">
        <ele>265</ele>
        <time>2016-03-08T00:42:27Z</time>
      </trkpt>
      <trkpt lat="45.47069" lon="0.8561">
        <ele>263</ele>
        <time>2016-03-08T00:44:27Z</time>
      </trkpt>
      <trkpt lat="45.46907" lon="0.85777">
        <ele>254</ele>
        <time>2016-03-08T00:46:27Z</time>
      </trkpt>
      <trkpt lat="45.46762" lon="0.85889">
        <ele>244</ele>
        <time>2016-03-08T00:48:27Z</time>
      </trkpt>
      <trkpt lat="45.46699" lon="0.8594">
        <ele>236</ele>
        <time>2016-03-08T00:50:27Z</time>
      </trkpt>
      <trkpt lat="45.46642" lon="0.86022">
        <ele>227</ele>
        <time>2016-03-08T00:52:27Z</time>
      </trkpt>
      <trkpt lat="45.46624" lon="0.86112">
        <ele>220</ele>
        <time>2016-03-08T00:54:27Z</time>
      </trkpt>
      <trkpt lat="45.46588" lon="0.86237">
        <ele>210</ele>
        <time>2016-03-08T00:56:27Z</time>
      </trkpt>
      <trkpt lat="45.46534" lon="0.86254">
        <ele>204</ele>
        <time>2016-03-08T00:58:27Z</time>
      </trkpt>
      <trkpt lat="45.46497" lon="0.86387">
        <ele>212</ele>
        <time>2016-03-08T01:00:27Z</time>
      </trkpt>
      <trkpt lat="45.46473" lon="0.86468">
        <ele>225</ele>
        <time>2016-03-08T01:02:27Z</time>
      </trkpt>
      <trkpt lat="45.46479" lon="0.86614">
        <ele>240</ele>
        <time>2016-03-08T01:04:27Z</time>
      </trkpt>
      <trkpt lat="45.4638" lon="0.86554">
        <ele>234</ele>
        <time>2016-03-08T01:06:27Z</time>
      </trkpt>
      <trkpt lat="45.46311" lon="0.86494">
        <ele>237</ele>
        <time>2016-03-08T01:08:27Z</time>
      </trkpt>
      <trkpt lat="45.46248" lon="0.86335">
        <ele>236</ele>
        <time>2016-03-08T01:10:27Z</time>
      </trkpt>
      <trkpt lat="45.46172" lon="0.86267">
        <ele>231</ele>
        <time>2016-03-08T01:12:27Z</time>
      </trkpt>
      <trkpt lat="45.46118" lon="0.86211">
        <ele>223</ele>
        <time>2016-03-08T01:14:27Z</time>
      </trkpt>
      <trkpt lat="45.46031" lon="0.86151">
        <ele>216</ele>
        <time>2016-03-08T01:16:27Z</time>
      </trkpt>
      <trkpt lat="45.45986" lon="0.86035">
        <ele>202</ele>
        <time>2016-03-08T01:18:27Z</time>
      </trkpt>
      <trkpt lat="45.45968" lon="0.85932">
        <ele>194</ele>
        <time>2016-03-08T01:20:27Z</time>
      </trkpt>
      <trkpt lat="45.45935" lon="0.85919">
        <ele>193</ele>
        <time>2016-03-08T01:22:27Z</time>
      </trkpt>
      <trkpt lat="45.45889" lon="0.85885">
        <ele>197</ele>
        <time>2016-03-08T01:24:27Z</time>
      </trkpt>
      <trkpt lat="45.45944" lon="0.8582">
        <ele>204</ele>
        <time>2016-03-08T01:26:27Z</time>
      </trkpt>
      <trkpt lat="45.45974" lon="0.85773">
        <ele>213</ele>
        <time>2016-03-08T01:28:27Z</time>
      </trkpt>
      <trkpt lat="45.45956" lon="0.85722">
        <ele>215</ele>
        <time>2016-03-08T01:30:27Z</time>
      </trkpt>
      <trkpt lat="45.45886" lon="0.85649">
        <ele>218</ele>
        <time>2016-03-08T01:32:27Z</time>
      </trkpt>
      <trkpt lat="45.45847" lon="0.85666">
        <ele>221</ele>
        <time>2016-03-08T01:34:27Z</time>
      </trkpt>
      <trkpt lat="45.45808" lon="0.85606">
        <ele>221</ele>
        <time>2016-03-08T01:36:27Z</time>
      </trkpt>
      <trkpt lat="45.45757" lon="0.85498">
        <ele>223</ele>
        <time>2016-03-08T01:38:27Z</time>
      </trkpt>
      <trkpt lat="45.45772" lon="0.85297">
        <ele>232</ele>
        <time>2016-03-08T01:40:27Z</time>
      </trkpt>
      <trkpt lat="45.45712" lon="0.85245">
        <ele>230</ele>
        <time>2016-03-08T01:42:27Z</time>
      </trkpt>
      <trkpt lat="45.45643" lon="0.85177">
        <ele>229</ele>
        <time>2016-03-08T01:44:27Z</time>
      </trkpt>
      <trkpt lat="45.45591" lon="0.85082">
        <ele>233</ele>
        <time>2016-03-08T01:46:27Z</time>
      </trkpt>
      <trkpt lat="45.45308" lon="0.84953">
        <ele>279</ele>
        <time>2016-03-08T01:48:27Z</time>
      </trkpt>
      <trkpt lat="45.45209" lon="0.84923">
        <ele>287</ele>
        <time>2016-03-08T01:50:27Z</time>
      </trkpt>
      <trkpt lat="45.45119" lon="0.84906">
        <ele>283</ele>
        <time>2016-03-08T01:52:27Z</time>
      </trkpt>
      <trkpt lat="45.4492" lon="0.84842">
        <ele>279</ele>
        <time>2016-03-08T01:54:27Z</time>
      </trkpt>
      <trkpt lat="45.44908" lon="0.84906">
        <ele>277</ele>
        <time>2016-03-08T01:56:27Z</time>
      </trkpt>
      <trkpt lat="45.4489" lon="0.85043">
        <ele>266</ele>
        <time>2016-03-08T01:58:27Z</time>
      </trkpt>
      <trkpt lat="45.44779" lon="0.85082">
        <ele>275</ele>
        <time>2016-03-08T02:00:27Z</time>
      </trkpt>
      <trkpt lat="45.44706" lon="0.85069">
        <ele>275</ele>
        <time>2016-03-08T02:02:27Z</time>
      </trkpt>
      <trkpt lat="45.44649" lon="0.85013">
        <ele>271</ele>
        <time>2016-03-08T02:04:27Z</time>
      </trkpt>
      <trkpt lat="45.44634" lon="0.8491">
        <ele>270</ele>
        <time>2016-03-08T02:06:27Z</time>
      </trkpt>
      <trkpt lat="45.44616" lon="0.84838">
        <ele>270</ele>
        <time>2016-03-08T02:08:27Z</time>
      </trkpt>
      <trkpt lat="45.44568" lon="0.84726">
        <ele>273</ele>
        <time>2016-03-08T02:10:27Z</time>
      </trkpt>
      <trkpt lat="45.44496" lon="0.8464">
        <ele>274</ele>
        <time>2016-03-08T02:12:27Z</time>
      </trkpt>
      <trkpt lat="45.44432" lon="0.84541">
        <ele>268</ele>
        <time>2016-03-08T02:14:27Z</time>
      </trkpt>
      <trkpt lat="45.44345" lon="0.84447">
        <ele>265</ele>
        <time>2016-03-08T02:16:27Z</time>
      </trkpt>
    </trkseg>
  </trk>
  <trk>
    <name><![CDATA[24 - St Martin de Fressengeas : nord raccourci]]></name>
    <trkseg>
      <trkpt lat="45.47286" lon="0.83261">
        <ele>302.1</ele>
        <extensions>
          <visugpx:TrkExtension xmlns:visugpx="https://www.visugpx.com/editgpx/">
            <visugpx:node>4</visugpx:node>
            </visugpx:TrkExtension>
        </extensions>
      </trkpt>
      <trkpt lat="45.47316" lon="0.83379">
        <ele>302.8</ele>
      </trkpt>
      <trkpt lat="45.47332" lon="0.83379">
        <ele>302.6</ele>
      </trkpt>
      <trkpt lat="45.47342" lon="0.83383">
        <ele>298.7</ele>
      </trkpt>
      <trkpt lat="45.47356" lon="0.834">
        <ele>298.5</ele>
      </trkpt>
      <trkpt lat="45.4738" lon="0.83438">
        <ele>296.8</ele>
      </trkpt>
      <trkpt lat="45.47412" lon="0.83494">
        <ele>293.3</ele>
      </trkpt>
      <trkpt lat="45.47457" lon="0.83589">
        <ele>289.6</ele>
      </trkpt>
      <trkpt lat="45.47459" lon="0.8367">
        <ele>286.4</ele>
      </trkpt>
      <trkpt lat="45.47503" lon="0.83843">
        <ele>276.2</ele>
      </trkpt>
      <trkpt lat="45.47503" lon="0.83855">
        <ele>275.6</ele>
      </trkpt>
      <trkpt lat="45.47495" lon="0.83874">
        <ele>277.1</ele>
      </trkpt>
      <trkpt lat="45.47473" lon="0.83908">
        <ele>276.9</ele>
        <extensions>
          <visugpx:TrkExtension xmlns:visugpx="https://www.visugpx.com/editgpx/">
            <visugpx:node>1</visugpx:node>
            </visugpx:TrkExtension>
        </extensions>
      </trkpt>
      <trkpt lat="45.47469" lon="0.83913">
        <ele>277</ele>
      </trkpt>
      <trkpt lat="45.47455" lon="0.83896">
        <ele>277.5</ele>
      </trkpt>
      <trkpt lat="45.47348" lon="0.83806">
        <ele>284.3</ele>
      </trkpt>
      <trkpt lat="45.4726" lon="0.83728">
        <ele>290.2</ele>
      </trkpt>
      <trkpt lat="45.47225" lon="0.83707">
        <ele>289.9</ele>
      </trkpt>
      <trkpt lat="45.47112" lon="0.83677">
        <ele>292.8</ele>
        <extensions>
          <visugpx:TrkExtension xmlns:visugpx="https://www.visugpx.com/editgpx/">
            <visugpx:node>3</visugpx:node>
            </visugpx:TrkExtension>
        </extensions>
      </trkpt>
      <trkpt lat="45.47045" lon="0.83659">
        <ele>298.8</ele>
      </trkpt>
      <trkpt lat="45.47004" lon="0.8365">
        <ele>301</ele>
        <extensions>
          <visugpx:TrkExtension xmlns:visugpx="https://www.visugpx.com/editgpx/">
            <visugpx:node>5</visugpx:node>
            </visugpx:TrkExtension>
        </extensions>
      </trkpt>
      <trkpt lat="45.47109" lon="0.83998">
        <ele>283.1</ele>
        <extensions>
          <visugpx:TrkExtension xmlns:visugpx="https://www.visugpx.com/editgpx/">
            <visugpx:node>6</visugpx:node>
            </visugpx:TrkExtension>
        </extensions>
      </trkpt>
      <trkpt lat="45.47151" lon="0.84204">
        <ele>275.8</ele>
        <extensions>
          <visugpx:TrkExtension xmlns:visugpx="https://www.visugpx.com/editgpx/">
            <visugpx:node>7</visugpx:node>
            </visugpx:TrkExtension>
        </extensions>
      </trkpt>
      <trkpt lat="45.47214" lon="0.8429">
        <ele>275.4</ele>
        <extensions>
          <visugpx:TrkExtension xmlns:visugpx="https://www.visugpx.com/editgpx/">
            <visugpx:node>8</visugpx:node>
            </visugpx:TrkExtension>
        </extensions>
      </trkpt>
      <trkpt lat="45.47214" lon="0.84442">
        <ele>268.6</ele>
        <extensions>
          <visugpx:TrkExtension xmlns:visugpx="https://www.visugpx.com/editgpx/">
            <visugpx:node>9</visugpx:node>
            </visugpx:TrkExtension>
        </extensions>
      </trkpt>
      <trkpt lat="45.47174" lon="0.84749">
        <ele>267.1</ele>
        <extensions>
          <visugpx:TrkExtension xmlns:visugpx="https://www.visugpx.com/editgpx/">
            <visugpx:node>10</visugpx:node>
            </visugpx:TrkExtension>
        </extensions>
      </trkpt>
      <trkpt lat="45.47185" lon="0.84751">
        <ele>266.4</ele>
      </trkpt>
      <trkpt lat="45.47213" lon="0.8478">
        <ele>266.9</ele>
      </trkpt>
      <trkpt lat="45.47223" lon="0.84788">
        <ele>267</ele>
      </trkpt>
      <trkpt lat="45.47239" lon="0.84795">
        <ele>267.2</ele>
      </trkpt>
      <trkpt lat="45.47257" lon="0.84796">
        <ele>270.1</ele>
      </trkpt>
      <trkpt lat="45.47258" lon="0.84799">
        <ele>270</ele>
        <extensions>
          <visugpx:TrkExtension xmlns:visugpx="https://www.visugpx.com/editgpx/">
            <visugpx:node>11</visugpx:node>
            </visugpx:TrkExtension>
        </extensions>
      </trkpt>
      <trkpt lat="45.47262" lon="0.84806">
        <ele>269.8</ele>
      </trkpt>
      <trkpt lat="45.47296" lon="0.84856">
        <ele>267.2</ele>
      </trkpt>
      <trkpt lat="45.47303" lon="0.84874">
        <ele>267</ele>
      </trkpt>
      <trkpt lat="45.47306" lon="0.84892">
        <ele>266.7</ele>
      </trkpt>
      <trkpt lat="45.47303" lon="0.84926">
        <ele>265.4</ele>
      </trkpt>
      <trkpt lat="45.47293" lon="0.84964">
        <ele>265</ele>
      </trkpt>
      <trkpt lat="45.47281" lon="0.85028">
        <ele>266.6</ele>
      </trkpt>
      <trkpt lat="45.47273" lon="0.85047">
        <ele>267.1</ele>
      </trkpt>
      <trkpt lat="45.47246" lon="0.85088">
        <ele>268.8</ele>
      </trkpt>
      <trkpt lat="45.47204" lon="0.8516">
        <ele>267.9</ele>
        <extensions>
          <visugpx:TrkExtension xmlns:visugpx="https://www.visugpx.com/editgpx/">
            <visugpx:node>12</visugpx:node>
            </visugpx:TrkExtension>
        </extensions>
      </trkpt>
    </trkseg>
  </trk>
</gpx>